sensor_id;sensor_type;location;lat;lon;timestamp;pressure;altitude;pressure_sealevel;temperature;humidity
59951;BME280;45812;53.540;9.774;2022-11-02T00:00:48;101533.44;;;10.70;88.14
59951;BME280;45812;53.540;9.774;2022-11-02T00:03:14;101539.75;;;10.69;87.66
59951;BME280;45812;53.540;9.774;2022-11-02T00:05:39;101527.28;;;10.70;87.74
59951;BME280;45812;53.540;9.774;2022-11-02T00:08:04;101519.75;;;10.65;87.81
59951;BME280;45812;53.540;9.774;2022-11-02T00:10:30;101520.03;;;10.62;88.38
59951;BME280;45812;53.540;9.774;2022-11-02T00:12:55;101513.59;;;10.55;88.92
59951;BME280;45812;53.540;9.774;2022-11-02T00:15:23;101522.03;;;10.50;89.12
59951;BME280;45812;53.540;9.774;2022-11-02T00:17:54;101515.63;;;10.43;89.69
59951;BME280;45812;53.540;9.774;2022-11-02T00:20:22;101520.50;;;10.48;89.62
59951;BME280;45812;53.540;9.774;2022-11-02T00:22:49;101512.09;;;10.43;89.89
59951;BME280;45812;53.540;9.774;2022-11-02T00:25:17;101513.63;;;10.45;89.87
59951;BME280;45812;53.540;9.774;2022-11-02T00:27:44;101513.59;;;10.55;88.89
59951;BME280;45812;53.540;9.774;2022-11-02T00:30:09;101506.72;;;10.62;89.18
59951;BME280;45812;53.540;9.774;2022-11-02T00:32:35;101512.16;;;10.70;88.64
59951;BME280;45812;53.540;9.774;2022-11-02T00:35:00;101502.16;;;10.82;88.22
59951;BME280;45812;53.540;9.774;2022-11-02T00:37:25;101499.19;;;10.85;88.48
59951;BME280;45812;53.540;9.774;2022-11-02T00:39:51;101488.00;;;10.81;88.25
59951;BME280;45812;53.540;9.774;2022-11-02T00:42:16;101499.44;;;10.91;87.59
59951;BME280;45812;53.540;9.774;2022-11-02T00:44:41;101495.63;;;10.94;87.60
59951;BME280;45812;53.540;9.774;2022-11-02T00:47:06;101498.44;;;10.92;88.04
59951;BME280;45812;53.540;9.774;2022-11-02T00:49:32;101491.00;;;10.96;87.50
59951;BME280;45812;53.540;9.774;2022-11-02T00:51:57;101491.88;;;10.87;87.96
59951;BME280;45812;53.540;9.774;2022-11-02T00:54:22;101485.06;;;10.75;88.98
59951;BME280;45812;53.540;9.774;2022-11-02T00:56:48;101481.56;;;10.74;88.55
59951;BME280;45812;53.540;9.774;2022-11-02T00:59:13;101479.50;;;10.68;88.83
59951;BME280;45812;53.540;9.774;2022-11-02T01:01:39;101479.94;;;10.64;89.03
59951;BME280;45812;53.540;9.774;2022-11-02T01:04:04;101475.63;;;10.63;89.53
59951;BME280;45812;53.540;9.774;2022-11-02T01:06:30;101479.00;;;10.55;89.74
59951;BME280;45812;53.540;9.774;2022-11-02T01:08:55;101477.22;;;10.46;90.79
59951;BME280;45812;53.540;9.774;2022-11-02T01:11:22;101468.81;;;10.41;90.47
59951;BME280;45812;53.540;9.774;2022-11-02T01:13:51;101477.91;;;10.38;90.90
59951;BME280;45812;53.540;9.774;2022-11-02T01:16:16;101467.03;;;10.31;91.44
59951;BME280;45812;53.540;9.774;2022-11-02T01:18:41;101468.03;;;10.21;92.48
59951;BME280;45812;53.540;9.774;2022-11-02T01:21:07;101464.09;;;10.15;92.84
59951;BME280;45812;53.540;9.774;2022-11-02T01:23:34;101457.78;;;10.16;92.77
59951;BME280;45812;53.540;9.774;2022-11-02T01:26:04;101466.22;;;10.12;92.87
59951;BME280;45812;53.540;9.774;2022-11-02T01:28:30;101463.41;;;10.13;93.21
59951;BME280;45812;53.540;9.774;2022-11-02T01:30:56;101459.34;;;10.09;93.71
59951;BME280;45812;53.540;9.774;2022-11-02T01:33:22;101456.69;;;10.09;93.55
59951;BME280;45812;53.540;9.774;2022-11-02T01:35:48;101452.38;;;10.08;93.86
59951;BME280;45812;53.540;9.774;2022-11-02T01:38:13;101453.06;;;10.10;93.56
59951;BME280;45812;53.540;9.774;2022-11-02T01:40:39;101453.63;;;10.23;93.13
59951;BME280;45812;53.540;9.774;2022-11-02T01:43:31;101448.78;;;10.37;92.13
59951;BME280;45812;53.540;9.774;2022-11-02T01:48:35;101441.72;;;10.55;91.21
59951;BME280;45812;53.540;9.774;2022-11-02T01:51:04;101448.88;;;10.54;91.15
59951;BME280;45812;53.540;9.774;2022-11-02T01:53:31;101436.81;;;10.60;91.11
59951;BME280;45812;53.540;9.774;2022-11-02T01:55:58;101432.31;;;10.60;91.15
59951;BME280;45812;53.540;9.774;2022-11-02T01:58:23;101424.34;;;10.60;91.49
59951;BME280;45812;53.540;9.774;2022-11-02T02:00:50;101423.50;;;10.60;91.01
59951;BME280;45812;53.540;9.774;2022-11-02T02:03:16;101427.53;;;10.64;91.30
59951;BME280;45812;53.540;9.774;2022-11-02T02:05:53;101437.59;;;10.70;90.53
59951;BME280;45812;53.540;9.774;2022-11-02T02:08:23;101429.31;;;10.73;90.78
59951;BME280;45812;53.540;9.774;2022-11-02T02:10:49;101435.88;;;10.79;90.64
59951;BME280;45812;53.540;9.774;2022-11-02T02:13:15;101422.09;;;10.83;90.00
59951;BME280;45812;53.540;9.774;2022-11-02T02:16:10;101414.50;;;10.88;89.90
59951;BME280;45812;53.540;9.774;2022-11-02T02:18:53;101405.22;;;10.92;90.00
59951;BME280;45812;53.540;9.774;2022-11-02T02:21:32;101399.59;;;10.96;89.87
59951;BME280;45812;53.540;9.774;2022-11-02T02:24:14;101408.66;;;11.03;89.34
59951;BME280;45812;53.540;9.774;2022-11-02T02:32:19;101419.53;;;10.91;90.74
59951;BME280;45812;53.540;9.774;2022-11-02T02:34:56;101415.78;;;10.29;97.29
59951;BME280;45812;53.540;9.774;2022-11-02T02:37:35;101408.28;;;10.06;100.00
59951;BME280;45812;53.540;9.774;2022-11-02T02:40:13;101399.22;;;9.89;100.00
59951;BME280;45812;53.540;9.774;2022-11-02T02:45:18;101401.88;;;9.79;100.00
59951;BME280;45812;53.540;9.774;2022-11-02T02:47:51;101399.38;;;9.78;100.00
59951;BME280;45812;53.540;9.774;2022-11-02T02:50:22;101397.53;;;9.78;100.00
59951;BME280;45812;53.540;9.774;2022-11-02T02:52:49;101394.31;;;9.84;100.00
59951;BME280;45812;53.540;9.774;2022-11-02T02:55:19;101389.81;;;9.85;100.00
59951;BME280;45812;53.540;9.774;2022-11-02T02:57:47;101375.81;;;9.92;100.00
59951;BME280;45812;53.540;9.774;2022-11-02T03:00:14;101385.03;;;9.98;100.00
59951;BME280;45812;53.540;9.774;2022-11-02T03:02:42;101379.44;;;10.01;100.00
59951;BME280;45812;53.540;9.774;2022-11-02T03:05:32;101372.72;;;10.07;100.00
59951;BME280;45812;53.540;9.774;2022-11-02T03:08:02;101368.91;;;10.09;100.00
59951;BME280;45812;53.540;9.774;2022-11-02T03:10:36;101369.59;;;10.11;100.00
59951;BME280;45812;53.540;9.774;2022-11-02T03:15:57;101378.59;;;10.47;98.11
59951;BME280;45812;53.540;9.774;2022-11-02T03:18:37;101379.66;;;10.82;95.40
59951;BME280;45812;53.540;9.774;2022-11-02T03:24:09;101379.53;;;11.01;93.55
59951;BME280;45812;53.540;9.774;2022-11-02T03:27:04;101369.44;;;11.13;92.82
59951;BME280;45812;53.540;9.774;2022-11-02T03:29:38;101378.97;;;11.15;92.00
59951;BME280;45812;53.540;9.774;2022-11-02T03:32:10;101367.72;;;11.21;91.55
59951;BME280;45812;53.540;9.774;2022-11-02T03:37:19;101364.59;;;11.26;91.28
59951;BME280;45812;53.540;9.774;2022-11-02T03:39:55;101365.28;;;11.28;91.56
59951;BME280;45812;53.540;9.774;2022-11-02T03:42:25;101374.78;;;11.31;90.87
59951;BME280;45812;53.540;9.774;2022-11-02T03:44:58;101369.84;;;11.36;91.59
59951;BME280;45812;53.540;9.774;2022-11-02T03:47:26;101376.75;;;11.29;91.98
59951;BME280;45812;53.540;9.774;2022-11-02T03:49:56;101373.50;;;11.35;91.39
59951;BME280;45812;53.540;9.774;2022-11-02T03:52:24;101377.00;;;11.35;91.38
59951;BME280;45812;53.540;9.774;2022-11-02T03:55:19;101408.00;;;11.36;91.10
59951;BME280;45812;53.540;9.774;2022-11-02T03:57:47;101385.13;;;11.34;91.18
59951;BME280;45812;53.540;9.774;2022-11-02T04:00:24;101385.91;;;11.26;91.98
59951;BME280;45812;53.540;9.774;2022-11-02T04:02:59;101387.44;;;11.29;92.33
59951;BME280;45812;53.540;9.774;2022-11-02T04:05:32;101387.28;;;11.30;92.36
59951;BME280;45812;53.540;9.774;2022-11-02T04:07:58;101377.28;;;11.32;92.75
59951;BME280;45812;53.540;9.774;2022-11-02T04:10:43;101389.09;;;11.30;93.42
59951;BME280;45812;53.540;9.774;2022-11-02T04:13:27;101393.22;;;11.24;94.15
59951;BME280;45812;53.540;9.774;2022-11-02T04:16:12;101386.84;;;11.17;94.89
59951;BME280;45812;53.540;9.774;2022-11-02T04:18:38;101388.94;;;11.13;95.25
59951;BME280;45812;53.540;9.774;2022-11-02T04:21:22;101382.34;;;11.17;95.22
59951;BME280;45812;53.540;9.774;2022-11-02T04:23:47;101387.94;;;11.14;95.20
59951;BME280;45812;53.540;9.774;2022-11-02T04:26:31;101388.50;;;11.00;95.89
59951;BME280;45812;53.540;9.774;2022-11-02T04:28:56;101392.34;;;10.88;96.66
59951;BME280;45812;53.540;9.774;2022-11-02T04:31:21;101390.31;;;10.82;97.04
59951;BME280;45812;53.540;9.774;2022-11-02T04:33:46;101389.16;;;10.84;97.03
59951;BME280;45812;53.540;9.774;2022-11-02T04:36:11;101392.13;;;10.81;97.65
59951;BME280;45812;53.540;9.774;2022-11-02T04:38:37;101388.63;;;10.81;97.63
59951;BME280;45812;53.540;9.774;2022-11-02T04:41:15;101392.50;;;10.86;97.24
59951;BME280;45812;53.540;9.774;2022-11-02T04:43:59;101386.97;;;10.98;96.84
59951;BME280;45812;53.540;9.774;2022-11-02T04:46:27;101393.81;;;11.00;96.97
59951;BME280;45812;53.540;9.774;2022-11-02T04:48:53;101390.69;;;11.05;96.44
59951;BME280;45812;53.540;9.774;2022-11-02T04:51:20;101393.38;;;11.05;96.67
59951;BME280;45812;53.540;9.774;2022-11-02T04:53:46;101392.22;;;11.07;96.40
59951;BME280;45812;53.540;9.774;2022-11-02T04:56:12;101399.59;;;11.13;96.14
59951;BME280;45812;53.540;9.774;2022-11-02T04:58:37;101398.84;;;11.21;95.74
59951;BME280;45812;53.540;9.774;2022-11-02T05:01:06;101386.38;;;11.21;95.62
59951;BME280;45812;53.540;9.774;2022-11-02T05:03:32;101384.84;;;11.19;95.63
59951;BME280;45812;53.540;9.774;2022-11-02T05:05:58;101402.72;;;11.27;95.22
59951;BME280;45812;53.540;9.774;2022-11-02T05:08:23;101400.06;;;11.27;95.29
59951;BME280;45812;53.540;9.774;2022-11-02T05:10:48;101400.91;;;11.27;95.31
59951;BME280;45812;53.540;9.774;2022-11-02T05:13:14;101401.44;;;11.31;94.85
59951;BME280;45812;53.540;9.774;2022-11-02T05:15:39;101396.03;;;11.40;94.29
59951;BME280;45812;53.540;9.774;2022-11-02T05:18:04;101397.19;;;11.38;94.43
59951;BME280;45812;53.540;9.774;2022-11-02T05:20:30;101394.75;;;11.27;95.15
59951;BME280;45812;53.540;9.774;2022-11-02T05:22:55;101391.31;;;10.99;97.42
59951;BME280;45812;53.540;9.774;2022-11-02T05:25:20;101387.50;;;10.83;99.16
59951;BME280;45812;53.540;9.774;2022-11-02T05:27:45;101389.22;;;10.75;99.48
59951;BME280;45812;53.540;9.774;2022-11-02T05:30:11;101389.22;;;10.75;99.65
59951;BME280;45812;53.540;9.774;2022-11-02T05:32:36;101388.13;;;10.68;100.00
59951;BME280;45812;53.540;9.774;2022-11-02T05:35:02;101384.53;;;10.59;100.00
59951;BME280;45812;53.540;9.774;2022-11-02T05:37:28;101388.75;;;10.61;100.00
59951;BME280;45812;53.540;9.774;2022-11-02T05:39:53;101390.69;;;10.59;100.00
59951;BME280;45812;53.540;9.774;2022-11-02T05:42:18;101384.69;;;10.57;100.00
59951;BME280;45812;53.540;9.774;2022-11-02T05:44:43;101391.06;;;10.47;100.00
59951;BME280;45812;53.540;9.774;2022-11-02T05:47:09;101391.34;;;10.44;100.00
59951;BME280;45812;53.540;9.774;2022-11-02T05:49:34;101393.72;;;10.47;100.00
59951;BME280;45812;53.540;9.774;2022-11-02T05:51:59;101391.28;;;10.53;100.00
59951;BME280;45812;53.540;9.774;2022-11-02T05:54:24;101395.09;;;10.51;100.00
59951;BME280;45812;53.540;9.774;2022-11-02T05:56:50;101401.22;;;10.61;100.00
59951;BME280;45812;53.540;9.774;2022-11-02T05:59:15;101386.41;;;10.76;100.00
59951;BME280;45812;53.540;9.774;2022-11-02T06:01:40;101406.44;;;10.80;100.00
59951;BME280;45812;53.540;9.774;2022-11-02T06:04:06;101403.00;;;10.88;99.79
59951;BME280;45812;53.540;9.774;2022-11-02T06:06:31;101387.09;;;10.96;99.25
59951;BME280;45812;53.540;9.774;2022-11-02T06:08:56;101396.72;;;11.07;98.50
59951;BME280;45812;53.540;9.774;2022-11-02T06:11:22;101387.72;;;11.08;98.45
59951;BME280;45812;53.540;9.774;2022-11-02T06:13:49;101407.56;;;10.96;100.00
59951;BME280;45812;53.540;9.774;2022-11-02T06:16:15;101406.44;;;10.80;100.00
59951;BME280;45812;53.540;9.774;2022-11-02T06:18:41;101399.09;;;10.65;100.00
59951;BME280;45812;53.540;9.774;2022-11-02T06:21:07;101410.06;;;10.52;100.00
59951;BME280;45812;53.540;9.774;2022-11-02T06:23:33;101405.88;;;10.49;100.00
59951;BME280;45812;53.540;9.774;2022-11-02T06:25:59;101409.16;;;10.43;100.00
59951;BME280;45812;53.540;9.774;2022-11-02T06:28:25;101414.03;;;10.48;100.00
59951;BME280;45812;53.540;9.774;2022-11-02T06:30:51;101410.72;;;10.64;100.00
59951;BME280;45812;53.540;9.774;2022-11-02T06:33:17;101405.72;;;10.78;100.00
59951;BME280;45812;53.540;9.774;2022-11-02T06:35:47;101411.81;;;10.71;100.00
59951;BME280;45812;53.540;9.774;2022-11-02T06:38:13;101402.75;;;10.64;100.00
59951;BME280;45812;53.540;9.774;2022-11-02T06:40:39;101414.72;;;10.50;100.00
59951;BME280;45812;53.540;9.774;2022-11-02T06:43:04;101412.44;;;10.55;100.00
59951;BME280;45812;53.540;9.774;2022-11-02T06:45:29;101412.84;;;10.60;100.00
59951;BME280;45812;53.540;9.774;2022-11-02T06:47:54;101413.81;;;10.59;100.00
59951;BME280;45812;53.540;9.774;2022-11-02T06:50:20;101420.09;;;10.68;100.00
59951;BME280;45812;53.540;9.774;2022-11-02T06:52:46;101421.84;;;10.77;100.00
59951;BME280;45812;53.540;9.774;2022-11-02T06:55:13;101428.97;;;10.86;100.00
59951;BME280;45812;53.540;9.774;2022-11-02T06:57:40;101428.97;;;10.86;100.00
59951;BME280;45812;53.540;9.774;2022-11-02T07:00:08;101437.09;;;10.84;100.00
59951;BME280;45812;53.540;9.774;2022-11-02T07:02:34;101436.75;;;10.70;100.00
59951;BME280;45812;53.540;9.774;2022-11-02T07:04:59;101435.81;;;10.61;100.00
59951;BME280;45812;53.540;9.774;2022-11-02T07:07:24;101436.69;;;10.52;100.00
59951;BME280;45812;53.540;9.774;2022-11-02T07:09:49;101446.13;;;10.46;100.00
59951;BME280;45812;53.540;9.774;2022-11-02T07:12:15;101446.56;;;10.42;100.00
59951;BME280;45812;53.540;9.774;2022-11-02T07:14:40;101450.91;;;10.43;100.00
59951;BME280;45812;53.540;9.774;2022-11-02T07:17:05;101444.00;;;10.50;100.00
59951;BME280;45812;53.540;9.774;2022-11-02T07:19:30;101443.41;;;10.56;100.00
59951;BME280;45812;53.540;9.774;2022-11-02T07:21:56;101442.59;;;10.83;100.00
59951;BME280;45812;53.540;9.774;2022-11-02T07:24:21;101461.25;;;11.01;100.00
59951;BME280;45812;53.540;9.774;2022-11-02T07:26:47;101455.66;;;11.21;100.00
59951;BME280;45812;53.540;9.774;2022-11-02T07:29:14;101459.00;;;11.23;100.00
59951;BME280;45812;53.540;9.774;2022-11-02T07:31:39;101453.22;;;11.28;99.84
59951;BME280;45812;53.540;9.774;2022-11-02T07:34:04;101454.00;;;11.38;99.25
59951;BME280;45812;53.540;9.774;2022-11-02T07:36:29;101454.59;;;11.50;99.05
59951;BME280;45812;53.540;9.774;2022-11-02T07:38:55;101456.03;;;11.44;98.84
59951;BME280;45812;53.540;9.774;2022-11-02T07:41:20;101447.16;;;11.53;98.38
59951;BME280;45812;53.540;9.774;2022-11-02T07:43:45;101446.16;;;11.55;98.41
59951;BME280;45812;53.540;9.774;2022-11-02T07:46:11;101453.53;;;11.61;97.71
59951;BME280;45812;53.540;9.774;2022-11-02T07:48:36;101461.06;;;11.83;97.11
59951;BME280;45812;53.540;9.774;2022-11-02T07:51:01;101454.63;;;12.11;95.14
59951;BME280;45812;53.540;9.774;2022-11-02T07:53:27;101450.38;;;12.27;93.99
59951;BME280;45812;53.540;9.774;2022-11-02T07:55:52;101452.16;;;12.18;93.52
59951;BME280;45812;53.540;9.774;2022-11-02T07:58:17;101450.44;;;12.09;93.73
59951;BME280;45812;53.540;9.774;2022-11-02T08:00:43;101447.31;;;12.13;93.30
59951;BME280;45812;53.540;9.774;2022-11-02T08:03:10;101458.34;;;12.19;93.70
59951;BME280;45812;53.540;9.774;2022-11-02T08:05:38;101463.41;;;12.30;92.13
59951;BME280;45812;53.540;9.774;2022-11-02T08:08:06;101464.19;;;12.48;90.75
59951;BME280;45812;53.540;9.774;2022-11-02T08:10:33;101457.38;;;12.54;90.54
59951;BME280;45812;53.540;9.774;2022-11-02T08:12:59;101454.50;;;12.47;90.20
59951;BME280;45812;53.540;9.774;2022-11-02T08:15:24;101452.69;;;12.48;88.04
59951;BME280;45812;53.540;9.774;2022-11-02T08:18:06;101467.16;;;12.45;88.92
59951;BME280;45812;53.540;9.774;2022-11-02T08:20:33;101469.53;;;12.48;88.20
59951;BME280;45812;53.540;9.774;2022-11-02T08:22:59;101475.88;;;12.47;88.33
59951;BME280;45812;53.540;9.774;2022-11-02T08:25:25;101484.41;;;12.51;87.99
59951;BME280;45812;53.540;9.774;2022-11-02T08:27:50;101479.34;;;12.73;86.02
59951;BME280;45812;53.540;9.774;2022-11-02T08:30:15;101469.94;;;13.03;84.23
59951;BME280;45812;53.540;9.774;2022-11-02T08:32:41;101485.97;;;13.70;79.90
59951;BME280;45812;53.540;9.774;2022-11-02T08:35:06;101477.03;;;14.43;77.16
59951;BME280;45812;53.540;9.774;2022-11-02T08:37:31;101490.16;;;15.16;71.10
59951;BME280;45812;53.540;9.774;2022-11-02T08:39:57;101485.03;;;15.06;70.60
59951;BME280;45812;53.540;9.774;2022-11-02T08:42:22;101489.84;;;14.80;71.68
59951;BME280;45812;53.540;9.774;2022-11-02T08:44:47;101481.59;;;14.90;70.48
59951;BME280;45812;53.540;9.774;2022-11-02T08:47:12;101485.94;;;14.51;72.90
59951;BME280;45812;53.540;9.774;2022-11-02T08:49:39;101491.59;;;14.57;72.65
59951;BME280;45812;53.540;9.774;2022-11-02T08:52:04;101483.69;;;14.63;72.31
59951;BME280;45812;53.540;9.774;2022-11-02T08:54:29;101490.28;;;14.36;73.87
59951;BME280;45812;53.540;9.774;2022-11-02T08:56:54;101498.13;;;14.30;73.68
59951;BME280;45812;53.540;9.774;2022-11-02T08:59:20;101503.16;;;14.57;72.60
59951;BME280;45812;53.540;9.774;2022-11-02T09:01:45;101519.75;;;14.04;75.46
59951;BME280;45812;53.540;9.774;2022-11-02T09:04:10;101529.78;;;13.77;76.48
59951;BME280;45812;53.540;9.774;2022-11-02T09:06:35;101514.38;;;13.63;77.79
59951;BME280;45812;53.540;9.774;2022-11-02T09:09:01;101506.34;;;13.71;78.10
59951;BME280;45812;53.540;9.774;2022-11-02T09:11:26;101494.00;;;13.78;77.69
59951;BME280;45812;53.540;9.774;2022-11-02T09:13:51;101513.22;;;13.74;78.83
59951;BME280;45812;53.540;9.774;2022-11-02T09:16:17;101498.34;;;13.87;77.31
59951;BME280;45812;53.540;9.774;2022-11-02T09:18:42;101505.84;;;13.92;78.13
59951;BME280;45812;53.540;9.774;2022-11-02T09:21:07;101509.53;;;13.91;76.82
59951;BME280;45812;53.540;9.774;2022-11-02T09:23:33;101512.06;;;13.76;78.57
59951;BME280;45812;53.540;9.774;2022-11-02T09:25:58;101540.50;;;13.93;76.55
59951;BME280;45812;53.540;9.774;2022-11-02T09:28:26;101517.06;;;13.87;75.85
59951;BME280;45812;53.540;9.774;2022-11-02T09:30:51;101519.09;;;13.85;77.01
59951;BME280;45812;53.540;9.774;2022-11-02T09:33:17;101532.81;;;13.82;77.51
59951;BME280;45812;53.540;9.774;2022-11-02T09:35:46;101541.66;;;13.91;75.45
59951;BME280;45812;53.540;9.774;2022-11-02T09:38:12;101554.72;;;13.86;76.10
59951;BME280;45812;53.540;9.774;2022-11-02T09:40:49;101529.47;;;13.97;75.37
59951;BME280;45812;53.540;9.774;2022-11-02T09:43:26;101538.00;;;14.08;74.66
59951;BME280;45812;53.540;9.774;2022-11-02T09:46:00;101541.50;;;13.92;75.19
59951;BME280;45812;53.540;9.774;2022-11-02T09:48:41;101521.56;;;13.62;75.37
59951;BME280;45812;53.540;9.774;2022-11-02T09:51:11;101530.41;;;13.47;76.93
59951;BME280;45812;53.540;9.774;2022-11-02T09:56:08;101549.25;;;13.37;78.41
59951;BME280;45812;53.540;9.774;2022-11-02T09:58:38;101542.72;;;13.31;78.97
59951;BME280;45812;53.540;9.774;2022-11-02T10:01:33;101552.41;;;13.24;81.45
59951;BME280;45812;53.540;9.774;2022-11-02T10:06:28;101556.78;;;12.04;95.18
59951;BME280;45812;53.540;9.774;2022-11-02T10:09:08;101573.34;;;11.44;100.00
59951;BME280;45812;53.540;9.774;2022-11-02T10:12:11;101577.78;;;11.26;100.00
59951;BME280;45812;53.540;9.774;2022-11-02T10:14:52;101576.34;;;11.32;100.00
59951;BME280;45812;53.540;9.774;2022-11-02T10:17:24;101582.03;;;11.46;100.00
59951;BME280;45812;53.540;9.774;2022-11-02T10:19:55;101591.66;;;11.57;100.00
59951;BME280;45812;53.540;9.774;2022-11-02T10:22:24;101589.59;;;11.69;100.00
59951;BME280;45812;53.540;9.774;2022-11-02T10:24:52;101582.78;;;11.84;100.00
59951;BME280;45812;53.540;9.774;2022-11-02T10:29:54;101585.25;;;11.68;100.00
59951;BME280;45812;53.540;9.774;2022-11-02T10:32:21;101596.13;;;11.84;100.00
59951;BME280;45812;53.540;9.774;2022-11-02T10:34:46;101594.84;;;12.06;100.00
59951;BME280;45812;53.540;9.774;2022-11-02T10:37:32;101601.16;;;11.87;100.00
59951;BME280;45812;53.540;9.774;2022-11-02T10:42:55;101597.25;;;13.47;92.83
59951;BME280;45812;53.540;9.774;2022-11-02T10:48:26;101611.66;;;14.53;82.68
59951;BME280;45812;53.540;9.774;2022-11-02T10:50:58;101583.84;;;15.65;76.29
59951;BME280;45812;53.540;9.774;2022-11-02T10:53:33;101598.28;;;15.56;73.05
59951;BME280;45812;53.540;9.774;2022-11-02T11:01:30;101623.84;;;14.15;79.11
59951;BME280;45812;53.540;9.774;2022-11-02T11:04:17;101628.09;;;13.75;79.71
59951;BME280;45812;53.540;9.774;2022-11-02T11:06:44;101636.50;;;13.80;80.98
59951;BME280;45812;53.540;9.774;2022-11-02T11:11:58;101627.63;;;13.38;80.41
59951;BME280;45812;53.540;9.774;2022-11-02T11:14:26;101655.91;;;13.40;80.97
59951;BME280;45812;53.540;9.774;2022-11-02T11:16:55;101637.91;;;15.45;72.50
59951;BME280;45812;53.540;9.774;2022-11-02T11:19:37;101635.59;;;16.27;66.88
59951;BME280;45812;53.540;9.774;2022-11-02T11:22:24;101642.16;;;15.24;69.41
59951;BME280;45812;53.540;9.774;2022-11-02T11:24:49;101638.19;;;13.89;80.00
59951;BME280;45812;53.540;9.774;2022-11-02T11:27:18;101657.44;;;12.91;88.86
59951;BME280;45812;53.540;9.774;2022-11-02T11:29:57;101645.22;;;13.40;85.34
59951;BME280;45812;53.540;9.774;2022-11-02T11:32:25;101665.50;;;12.73;86.89
59951;BME280;45812;53.540;9.774;2022-11-02T11:34:55;101644.78;;;12.31;86.88
59951;BME280;45812;53.540;9.774;2022-11-02T11:37:21;101658.44;;;11.93;88.52
59951;BME280;45812;53.540;9.774;2022-11-02T11:39:51;101656.81;;;11.82;90.24
59951;BME280;45812;53.540;9.774;2022-11-02T11:42:19;101663.19;;;11.89;91.01
59951;BME280;45812;53.540;9.774;2022-11-02T11:45:05;101684.53;;;11.89;91.22
59951;BME280;45812;53.540;9.774;2022-11-02T11:47:34;101707.94;;;11.68;95.67
59951;BME280;45812;53.540;9.774;2022-11-02T11:50:02;101690.56;;;11.36;100.00
59951;BME280;45812;53.540;9.774;2022-11-02T11:52:30;101718.50;;;11.13;100.00
59951;BME280;45812;53.540;9.774;2022-11-02T11:54:58;101710.75;;;10.63;100.00
59951;BME280;45812;53.540;9.774;2022-11-02T11:57:32;101705.25;;;10.55;100.00
59951;BME280;45812;53.540;9.774;2022-11-02T11:59:59;101704.56;;;10.53;100.00
59951;BME280;45812;53.540;9.774;2022-11-02T12:02:33;101709.91;;;10.63;100.00
59951;BME280;45812;53.540;9.774;2022-11-02T12:05:17;101710.47;;;10.66;100.00
59951;BME280;45812;53.540;9.774;2022-11-02T12:08:06;101719.97;;;10.59;100.00
59951;BME280;45812;53.540;9.774;2022-11-02T12:13:30;101689.72;;;10.79;100.00
59951;BME280;45812;53.540;9.774;2022-11-02T12:16:37;101688.59;;;10.82;100.00
59951;BME280;45812;53.540;9.774;2022-11-02T12:19:31;101707.09;;;10.54;100.00
59951;BME280;45812;53.540;9.774;2022-11-02T12:25:08;101692.88;;;14.70;87.14
59951;BME280;45812;53.540;9.774;2022-11-02T12:30:29;101698.97;;;17.94;63.95
59951;BME280;45812;53.540;9.774;2022-11-02T12:33:05;101692.91;;;18.64;55.20
59951;BME280;45812;53.540;9.774;2022-11-02T12:35:51;101702.41;;;19.44;52.89
59951;BME280;45812;53.540;9.774;2022-11-02T12:46:58;101727.00;;;20.58;46.26
59951;BME280;45812;53.540;9.774;2022-11-02T12:49:32;101737.66;;;21.25;44.31
59951;BME280;45812;53.540;9.774;2022-11-02T12:52:20;101732.19;;;21.18;44.59
59951;BME280;45812;53.540;9.774;2022-11-02T12:54:51;101733.06;;;21.06;44.18
59951;BME280;45812;53.540;9.774;2022-11-02T12:57:21;101744.53;;;18.82;48.16
59951;BME280;45812;53.540;9.774;2022-11-02T12:59:51;101742.69;;;17.22;52.47
59951;BME280;45812;53.540;9.774;2022-11-02T13:02:28;101737.31;;;16.08;59.08
59951;BME280;45812;53.540;9.774;2022-11-02T13:04:59;101738.56;;;15.17;63.03
59951;BME280;45812;53.540;9.774;2022-11-02T13:07:31;101756.25;;;14.29;67.52
59951;BME280;45812;53.540;9.774;2022-11-02T13:10:03;101793.41;;;12.58;92.44
59951;BME280;45812;53.540;9.774;2022-11-02T13:12:32;101777.41;;;11.10;100.00
59951;BME280;45812;53.540;9.774;2022-11-02T13:15:01;101784.16;;;11.14;100.00
59951;BME280;45812;53.540;9.774;2022-11-02T13:17:35;101793.59;;;10.79;100.00
59951;BME280;45812;53.540;9.774;2022-11-02T13:20:27;101790.91;;;10.89;100.00
59951;BME280;45812;53.540;9.774;2022-11-02T13:22:59;101800.97;;;12.18;100.00
59951;BME280;45812;53.540;9.774;2022-11-02T13:25:35;101812.28;;;13.80;100.00
59951;BME280;45812;53.540;9.774;2022-11-02T13:28:10;101816.19;;;15.19;100.00
59951;BME280;45812;53.540;9.774;2022-11-02T13:30:38;101815.81;;;15.54;100.00
59951;BME280;45812;53.540;9.774;2022-11-02T13:33:17;101818.50;;;14.73;100.00
59951;BME280;45812;53.540;9.774;2022-11-02T13:35:44;101837.53;;;13.77;100.00
59951;BME280;45812;53.540;9.774;2022-11-02T13:40:48;101831.09;;;12.10;100.00
59951;BME280;45812;53.540;9.774;2022-11-02T13:46:35;101830.13;;;12.01;100.00
59951;BME280;45812;53.540;9.774;2022-11-02T13:49:15;101833.81;;;12.28;100.00
59951;BME280;45812;53.540;9.774;2022-11-02T13:51:46;101830.50;;;12.61;100.00
59951;BME280;45812;53.540;9.774;2022-11-02T13:54:18;101841.59;;;12.39;100.00
59951;BME280;45812;53.540;9.774;2022-11-02T13:56:46;101827.91;;;12.24;100.00
59951;BME280;45812;53.540;9.774;2022-11-02T13:59:20;101831.88;;;12.20;100.00
59951;BME280;45812;53.540;9.774;2022-11-02T14:01:48;101831.13;;;12.28;100.00
59951;BME280;45812;53.540;9.774;2022-11-02T14:04:15;101827.66;;;12.18;100.00